Time;durP1;ratioP1;P1;durP2;ratioP2;P2;SDS_P1;SDS_P2;PMS_P1;PMS_P2;Temp;Humidity;BMP_temperature;BMP_pressure;BME280_temperature;BME280_humidity;BME280_pressure;Samples;Min_cycle;Max_cycle;Signal;HPM_P1;HPM_P2
2022/01/29 00:00:15;;;;;;;13.27;3.10;;;;;;;2.98;59.80;99064.34;10056952;29;20428;-76
2022/01/29 00:05:43;;;;;;;15.23;3.10;;;;;;;2.98;59.31;99067.09;10058066;29;20051;-76
2022/01/29 00:11:12;;;;;;;14.05;2.90;;;;;;;2.98;59.42;99064.34;10056418;29;20448;-76
2022/01/29 00:16:33;;;;;;;13.73;2.72;;;;;;;2.98;59.86;99072.63;10057014;29;20416;-75
2022/01/29 00:21:54;;;;;;;15.00;3.00;;;;;;;2.96;59.66;99056.59;10054399;29;20411;-75
2022/01/29 00:27:16;;;;;;;14.65;3.17;;;;;;;2.96;59.80;99045.56;10066437;29;20049;-76
2022/01/29 00:32:37;;;;;;;14.38;2.25;;;;;;;2.98;59.94;99032.00;10066388;29;20060;-76
2022/01/29 00:37:57;;;;;;;13.15;2.20;;;;;;;2.95;60.21;99027.50;10032674;29;20441;-76
2022/01/29 00:43:18;;;;;;;15.75;2.88;;;;;;;2.91;60.12;99018.78;10032756;29;20049;-75
2022/01/29 00:48:39;;;;;;;17.15;2.75;;;;;;;2.88;59.91;99017.03;10020607;29;20053;-75
2022/01/29 00:54:06;;;;;;;14.68;3.30;;;;;;;2.76;60.47;99001.81;10033639;29;20399;-76
2022/01/29 00:59:27;;;;;;;12.43;2.20;;;;;;;2.69;60.31;99002.34;10044895;29;20049;-76
2022/01/29 01:04:48;;;;;;;11.27;2.08;;;;;;;2.69;60.66;98994.84;10044884;29;20058;-76
2022/01/29 01:10:10;;;;;;;11.32;2.90;;;;;;;2.69;60.74;98983.06;10032376;29;20087;-75
2022/01/29 01:15:31;;;;;;;13.90;2.65;;;;;;;2.66;60.54;98975.81;10019222;29;20049;-76
2022/01/29 01:20:51;;;;;;;14.48;2.33;;;;;;;2.59;60.80;98969.56;10032331;29;20046;-76
2022/01/29 01:26:13;;;;;;;12.95;2.65;;;;;;;2.57;61.07;98972.09;10044569;29;20049;-76
2022/01/29 01:31:34;;;;;;;12.82;2.88;;;;;;;2.58;60.67;98964.59;10031472;29;20094;-75
2022/01/29 01:37:00;;;;;;;15.82;3.25;;;;;;;2.51;61.04;98963.13;10018871;29;20046;-75
2022/01/29 01:42:22;;;;;;;14.90;3.50;;;;;;;2.47;61.20;98956.38;10045071;29;20445;-75
2022/01/29 01:47:43;;;;;;;10.95;3.03;;;;;;;2.45;61.49;98945.88;10044572;29;20045;-76
2022/01/29 01:53:04;;;;;;;11.02;2.60;;;;;;;2.41;61.39;98939.13;10018497;29;20050;-75
2022/01/29 01:58:32;;;;;;;13.60;3.78;;;;;;;2.36;60.98;98926.16;10009467;29;20536;-76
2022/01/29 02:03:53;;;;;;;11.25;2.65;;;;;;;2.32;61.42;98920.91;10043363;29;20128;-75
2022/01/29 02:09:15;;;;;;;12.32;2.72;;;;;;;2.22;61.33;98908.69;10043485;29;20057;-76
2022/01/29 02:14:38;;;;;;;14.75;2.97;;;;;;;2.14;61.43;98899.47;10038571;29;20046;-76
2022/01/29 02:19:58;;;;;;;17.83;2.90;;;;;;;2.01;62.28;98895.28;10025603;29;20041;-75
2022/01/29 02:25:29;;;;;;;10.27;2.65;;;;;;;1.92;61.98;98892.06;10037471;29;20060;-75
2022/01/29 02:31:01;;;;;;;13.45;3.30;;;;;;;1.87;62.56;98879.84;10024957;29;20436;-76
2022/01/29 02:36:22;;;;;;;9.02;2.30;;;;;;;1.84;62.19;98880.13;10026671;29;20481;-76
2022/01/29 02:41:44;;;;;;;14.15;2.88;;;;;;;1.91;62.78;98885.06;10024996;29;20042;-76
2022/01/29 02:47:26;;;;;;;11.95;3.10;;;;;;;2.00;62.58;98871.75;10049772;29;20061;-75
2022/01/29 02:52:47;;;;;;;14.77;2.80;;;;;;;2.10;62.27;98860.41;10049458;29;20060;-75
2022/01/29 02:58:08;;;;;;;10.35;2.78;;;;;;;2.19;61.93;98857.38;10049368;29;20110;-76
2022/01/29 03:03:28;;;;;;;13.07;2.63;;;;;;;2.25;62.83;98847.81;10035985;29;20045;-76
2022/01/29 03:08:49;;;;;;;12.02;2.70;;;;;;;2.32;62.13;98831.97;10036386;29;20106;-76
2022/01/29 03:14:10;;;;;;;14.38;2.47;;;;;;;2.34;62.51;98810.94;10048480;29;20045;-75
2022/01/29 03:19:32;;;;;;;10.98;2.30;;;;;;;2.43;62.62;98812.63;10048524;29;20429;-75
2022/01/29 03:24:53;;;;;;;10.82;2.03;;;;;;;2.48;62.55;98800.78;10047574;29;20549;-75
2022/01/29 03:30:13;;;;;;;11.20;2.55;;;;;;;2.52;63.10;98790.97;10022536;29;20511;-75
2022/01/29 03:35:34;;;;;;;11.00;2.00;;;;;;;2.62;62.35;98793.41;10047853;29;20049;-75
2022/01/29 03:40:57;;;;;;;10.45;2.28;;;;;;;2.67;62.84;98779.56;10022238;29;20049;-75
2022/01/29 03:46:18;;;;;;;10.60;2.25;;;;;;;2.73;62.68;98760.22;10022657;29;20134;-75
2022/01/29 03:51:39;;;;;;;11.55;2.03;;;;;;;2.78;63.09;98751.88;10060084;29;20399;-76
2022/01/29 03:57:00;;;;;;;13.98;2.40;;;;;;;2.77;62.79;98742.09;10021985;29;20117;-75
2022/01/29 04:02:20;;;;;;;10.40;2.47;;;;;;;2.77;62.99;98736.59;10047327;29;20049;-75
2022/01/29 04:07:42;;;;;;;10.07;2.20;;;;;;;2.77;62.88;98727.56;10047208;29;20060;-76
2022/01/29 04:13:09;;;;;;;10.07;2.35;;;;;;;2.76;62.66;98718.56;10046881;29;20484;-75
2022/01/29 04:18:30;;;;;;;12.25;2.97;;;;;;;2.75;63.07;98706.03;10034155;29;20134;-75
2022/01/29 04:23:51;;;;;;;10.43;2.90;;;;;;;2.75;63.09;98705.28;10020719;29;20042;-75
2022/01/29 04:29:12;;;;;;;10.65;2.58;;;;;;;2.78;63.02;98702.22;10020285;29;20588;-75
2022/01/29 04:34:32;;;;;;;11.88;2.55;;;;;;;2.81;62.79;98703.97;10045873;29;20046;-76
2022/01/29 04:39:53;;;;;;;9.15;2.83;;;;;;;2.86;63.46;98705.16;10032980;29;20465;-76
2022/01/29 04:45:14;;;;;;;10.23;2.80;;;;;;;2.91;63.32;98687.06;10032068;29;20097;-75
2022/01/29 04:50:35;;;;;;;10.45;3.33;;;;;;;2.90;63.59;98691.84;10030990;29;20045;-75
2022/01/29 04:55:56;;;;;;;10.65;3.00;;;;;;;2.95;63.65;98674.47;10044735;29;20046;-75
2022/01/29 05:01:17;;;;;;;11.52;3.15;;;;;;;2.98;62.92;98672.66;10032147;29;20064;-76
2022/01/29 05:06:38;;;;;;;11.48;3.40;;;;;;;3.02;63.65;98673.88;10029722;29;20056;-76
2022/01/29 05:12:01;;;;;;;10.15;3.90;;;;;;;3.06;63.71;98676.31;10044319;29;20453;-76
2022/01/29 05:28:43;;;;;;;11.45;3.65;;;;;;;3.13;63.71;98613.03;10024109;29;20101;-78
2022/01/29 05:34:04;;;;;;;10.82;4.00;;;;;;;3.12;64.06;98597.75;10031950;29;20054;-76
2022/01/29 05:39:25;;;;;;;11.80;5.18;;;;;;;3.10;63.75;98594.03;10018625;29;20105;-76
2022/01/29 05:44:47;;;;;;;12.10;4.57;;;;;;;3.11;64.45;98593.50;10041858;29;20084;-78
2022/01/29 05:50:08;;;;;;;10.75;4.22;;;;;;;3.09;64.30;98601.56;10060937;29;20053;-78
2022/01/29 05:55:29;;;;;;;12.00;5.20;;;;;;;3.16;64.38;98591.91;10059952;29;20049;-78
2022/01/29 06:00:50;;;;;;;10.82;4.90;;;;;;;3.22;64.13;98602.88;10089261;29;20140;-76
2022/01/29 06:06:11;;;;;;;14.55;5.72;;;;;;;3.22;64.57;98586.34;10063646;29;20055;-76
2022/01/29 06:11:33;;;;;;;8.00;4.80;;;;;;;3.26;64.35;98568.19;10063738;29;20084;-76
2022/01/29 06:16:54;;;;;;;10.25;4.57;;;;;;;3.31;64.46;98572.16;10063096;29;20052;-75
2022/01/29 06:22:15;;;;;;;10.93;4.85;;;;;;;3.33;63.99;98566.84;10076023;29;20056;-78
2022/01/29 06:27:37;;;;;;;8.90;5.05;;;;;;;3.34;64.94;98560.03;10062727;29;20077;-76
2022/01/29 06:33:06;;;;;;;9.30;5.85;;;;;;;3.39;64.50;98561.97;10062996;29;20108;-78
2022/01/29 06:38:27;;;;;;;10.25;5.57;;;;;;;3.39;64.78;98571.00;10075335;29;20127;-76
2022/01/29 06:43:49;;;;;;;11.88;6.10;;;;;;;3.45;64.70;98565.38;10062083;29;20400;-76
2022/01/29 06:49:11;;;;;;;13.15;5.97;;;;;;;3.48;64.53;98558.81;10075101;29;20096;-78
2022/01/29 06:54:31;;;;;;;11.00;5.53;;;;;;;3.51;64.96;98552.25;10061624;29;20060;-79
2022/01/29 06:59:53;;;;;;;13.00;6.95;;;;;;;3.54;64.20;98564.97;10086255;29;20045;-76
2022/01/29 07:05:14;;;;;;;10.70;5.22;;;;;;;3.56;64.79;98565.19;10087210;29;20056;-75
2022/01/29 07:10:37;;;;;;;12.70;5.88;;;;;;;3.66;64.29;98554.47;10074061;29;20061;-78
2022/01/29 07:15:58;;;;;;;11.85;6.32;;;;;;;3.70;64.75;98552.91;10074845;29;20049;-78
2022/01/29 07:21:21;;;;;;;12.10;6.70;;;;;;;3.78;64.74;98547.50;10061336;29;20049;-78
2022/01/29 07:26:42;;;;;;;12.07;6.43;;;;;;;3.83;64.18;98537.63;10074423;29;20041;-76
2022/01/29 07:32:05;;;;;;;9.70;6.35;;;;;;;3.88;63.94;98529.25;10060864;29;20045;-76
2022/01/29 07:37:26;;;;;;;12.95;6.85;;;;;;;4.15;64.02;98502.38;10072871;29;20116;-76
2022/01/29 07:42:47;;;;;;;12.95;6.80;;;;;;;4.52;63.43;98495.06;10060384;29;20060;-76
2022/01/29 07:48:07;;;;;;;13.93;7.05;;;;;;;4.39;63.21;98498.59;10060181;29;20053;-76
2022/01/29 07:53:29;;;;;;;11.77;7.63;;;;;;;4.18;63.65;98476.41;10060546;29;20101;-76
2022/01/29 07:58:50;;;;;;;14.50;8.10;;;;;;;4.04;63.49;98469.41;10060599;29;20056;-76
2022/01/29 08:04:11;;;;;;;12.80;7.30;;;;;;;3.95;63.70;98440.19;10059939;29;20381;-77
2022/01/29 08:09:33;;;;;;;11.30;7.18;;;;;;;4.01;63.53;98459.44;10059305;29;20554;-76
2022/01/29 08:14:54;;;;;;;12.73;7.07;;;;;;;4.08;63.65;98452.53;10072270;29;20041;-79
2022/01/29 08:20:15;;;;;;;13.88;7.22;;;;;;;4.04;63.59;98452.84;10046483;29;20640;-78
2022/01/29 08:25:37;;;;;;;11.60;7.43;;;;;;;4.08;63.94;98455.28;10059090;29;20053;-75
2022/01/29 08:30:57;;;;;;;13.45;8.18;;;;;;;4.10;63.95;98450.72;10056889;29;20053;-76
2022/01/29 08:36:18;;;;;;;13.32;7.30;;;;;;;4.08;64.09;98433.19;10026713;29;20056;-75
2022/01/29 08:41:39;;;;;;;9.50;6.95;;;;;;;4.11;64.48;98438.38;10056345;29;20523;-75
2022/01/29 08:47:00;;;;;;;12.20;8.02;;;;;;;4.09;64.60;98440.94;10058390;29;20052;-76
2022/01/29 08:52:21;;;;;;;13.55;8.05;;;;;;;4.06;64.65;98427.47;10032967;29;20552;-75
2022/01/29 08:57:42;;;;;;;9.63;7.07;;;;;;;4.08;64.98;98433.94;10045293;29;20121;-75
2022/01/29 09:03:04;;;;;;;12.55;7.63;;;;;;;4.05;65.61;98418.41;10045353;29;20080;-75
2022/01/29 09:08:25;;;;;;;10.77;7.65;;;;;;;4.13;65.52;98410.22;10045040;29;20057;-75
2022/01/29 09:13:45;;;;;;;11.02;6.60;;;;;;;4.35;65.48;98414.53;10032227;29;20169;-76
2022/01/29 09:19:07;;;;;;;10.55;6.85;;;;;;;4.35;65.06;98409.75;10032415;29;20374;-75
2022/01/29 09:24:27;;;;;;;9.50;6.45;;;;;;;4.33;65.83;98406.75;10031583;29;20550;-76
2022/01/29 09:29:48;;;;;;;11.85;7.25;;;;;;;4.26;65.89;98379.78;10032102;29;20393;-78
2022/01/29 09:35:09;;;;;;;9.23;6.63;;;;;;;4.25;66.53;98379.06;10037123;29;20054;-81
2022/01/29 09:53:24;;;;;;;14.27;8.13;;;;;;;4.39;66.89;98354.84;10075786;24;20120;-82
2022/01/29 09:58:45;;;;;;;11.73;7.55;;;;;;;4.45;66.94;98357.50;10053378;29;20046;-81
2022/01/29 10:04:06;;;;;;;9.18;6.90;;;;;;;4.53;66.78;98347.97;10042944;29;20037;-82
2022/01/29 10:09:34;;;;;;;12.55;7.28;;;;;;;4.49;66.30;98316.44;10089772;29;20084;-81
2022/01/29 10:15:00;;;;;;;11.82;6.82;;;;;;;4.53;66.82;98309.25;10088405;29;20112;-79
2022/01/29 10:20:26;;;;;;;10.95;7.25;;;;;;;4.54;66.81;98296.94;10069995;29;20041;-79
2022/01/29 10:25:50;;;;;;;10.10;6.57;;;;;;;4.59;66.86;98285.00;10071539;29;20496;-77
2022/01/29 10:31:11;;;;;;;10.47;6.40;;;;;;;4.48;67.06;98267.94;10057720;29;20049;-79
2022/01/29 10:36:32;;;;;;;9.40;5.60;;;;;;;4.59;67.20;98262.13;10063139;29;20129;-77
2022/01/29 10:41:53;;;;;;;8.85;5.40;;;;;;;4.64;66.86;98264.03;10073308;29;20045;-77
2022/01/29 10:47:13;;;;;;;8.88;5.00;;;;;;;4.78;67.02;98248.06;10077861;29;20045;-80
2022/01/29 10:52:35;;;;;;;7.53;4.97;;;;;;;4.92;66.42;98237.63;10048674;29;1325207;-83
2022/01/29 10:57:55;;;;;;;5.75;4.25;;;;;;;4.91;65.92;98236.88;10116449;29;20041;-81
2022/01/29 11:03:16;;;;;;;5.72;4.53;;;;;;;4.81;66.00;98217.28;10093323;29;20049;-80
2022/01/29 11:08:38;;;;;;;5.93;4.28;;;;;;;4.77;65.82;98213.41;10081452;29;20049;-80
2022/01/29 11:14:00;;;;;;;7.07;4.35;;;;;;;4.81;66.05;98214.50;10082053;29;20139;-80
2022/01/29 11:19:20;;;;;;;6.47;4.43;;;;;;;4.84;65.85;98190.56;10069738;29;20180;-80
2022/01/29 11:24:41;;;;;;;6.00;4.72;;;;;;;4.82;65.83;98193.13;10069557;29;20040;-80
2022/01/29 11:30:11;;;;;;;6.28;4.88;;;;;;;4.81;65.99;98175.78;10066815;29;20497;-80
2022/01/29 11:35:32;;;;;;;6.95;5.22;;;;;;;4.78;66.30;98185.19;10073958;29;20116;-80
2022/01/29 11:41:02;;;;;;;8.15;5.35;;;;;;;4.72;66.17;98190.13;10075021;29;20144;-81
2022/01/29 11:46:31;;;;;;;7.95;5.00;;;;;;;4.62;66.32;98174.56;10073856;29;20534;-81
2022/01/29 11:51:53;;;;;;;6.93;5.03;;;;;;;4.64;66.68;98172.78;10058147;29;20145;-79
2022/01/29 11:57:14;;;;;;;7.75;5.07;;;;;;;4.63;66.47;98168.50;10069801;29;20493;-78
2022/01/29 12:02:39;;;;;;;8.18;5.68;;;;;;;4.60;66.69;98158.53;10055255;29;20049;-79
2022/01/29 12:08:21;;;;;;;7.55;5.68;;;;;;;4.50;67.38;98130.66;10057555;29;20048;-79
2022/01/29 12:13:42;;;;;;;8.90;5.82;;;;;;;4.46;67.50;98115.72;10067066;29;20045;-78
2022/01/29 12:19:03;;;;;;;10.85;6.50;;;;;;;4.47;67.54;98108.91;10056134;29;20044;-78
2022/01/29 12:24:24;;;;;;;7.18;5.13;;;;;;;4.48;67.93;98107.59;10057129;29;20813;-78
2022/01/29 12:29:45;;;;;;;9.20;6.53;;;;;;;4.54;67.65;98088.84;10051672;29;20563;-78
2022/01/29 12:35:06;;;;;;;8.82;6.03;;;;;;;4.59;68.25;98080.38;10047914;29;20037;-78
2022/01/29 12:40:27;;;;;;;9.13;6.18;;;;;;;4.72;68.03;98065.66;10044876;29;20045;-78
2022/01/29 12:45:50;;;;;;;9.45;6.28;;;;;;;4.72;67.74;98060.16;10057478;29;20568;-78
2022/01/29 12:51:11;;;;;;;9.05;6.03;;;;;;;4.70;67.96;98053.69;10054269;29;20053;-78
2022/01/29 12:56:37;;;;;;;8.73;5.43;;;;;;;4.68;68.22;98054.25;10052376;29;20044;-79
2022/01/29 13:02:03;;;;;;;7.57;5.43;;;;;;;4.69;68.28;98039.13;10056515;29;20037;-78
2022/01/29 13:07:24;;;;;;;6.57;4.43;;;;;;;4.70;67.94;98053.69;10063887;29;20084;-79
2022/01/29 13:12:46;;;;;;;8.13;4.90;;;;;;;4.73;67.61;98016.63;10073458;29;20200;-77
2022/01/29 13:18:07;;;;;;;7.65;5.10;;;;;;;4.79;68.08;98026.25;10067045;29;20037;-76
2022/01/29 13:23:36;;;;;;;5.93;4.32;;;;;;;4.83;67.88;97999.00;10053353;29;20468;-77
2022/01/29 13:29:08;;;;;;;5.60;4.07;;;;;;;5.01;67.83;97997.16;10054609;29;20120;-76
2022/01/29 13:34:30;;;;;;;5.13;3.47;;;;;;;5.11;67.38;97972.44;10067413;29;20037;-76
2022/01/29 13:39:52;;;;;;;4.93;3.30;;;;;;;5.10;67.55;97977.25;10053772;29;20052;-77
2022/01/29 13:45:20;;;;;;;4.15;2.90;;;;;;;5.26;67.02;97971.72;10045070;29;20177;-76
2022/01/29 13:50:56;;;;;;;4.32;2.88;;;;;;;5.29;67.01;97945.69;10057379;29;20401;-76
2022/01/29 13:56:20;;;;;;;3.38;2.13;;;;;;;5.26;66.81;97928.19;10070970;29;20045;-78
2022/01/29 14:01:46;;;;;;;3.95;2.42;;;;;;;5.27;66.36;97913.03;10056810;29;20048;-76
2022/01/29 14:07:10;;;;;;;4.25;2.70;;;;;;;5.23;66.41;97901.63;10058328;29;20404;-75
2022/01/29 14:12:31;;;;;;;3.20;2.10;;;;;;;5.30;66.60;97905.66;10064461;29;20049;-75
2022/01/29 14:17:53;;;;;;;3.80;1.90;;;;;;;5.37;66.68;97894.56;10074443;29;20061;-75
2022/01/29 14:23:14;;;;;;;3.13;1.75;;;;;;;5.45;66.27;97898.06;10050949;29;20504;-75
2022/01/29 14:28:35;;;;;;;3.13;1.60;;;;;;;5.44;66.01;97927.06;10050976;29;20137;-74
2022/01/29 14:33:56;;;;;;;2.38;1.42;;;;;;;5.34;66.09;97937.22;10062808;29;20381;-76
2022/01/29 14:39:22;;;;;;;2.35;1.70;;;;;;;5.31;66.23;97913.41;10075925;29;20132;-77
2022/01/29 14:44:44;;;;;;;2.83;1.40;;;;;;;5.29;66.11;97899.38;10076017;29;20049;-76
2022/01/29 14:50:06;;;;;;;2.42;1.10;;;;;;;5.29;66.01;97895.88;10075320;29;20061;-77
2022/01/29 14:55:27;;;;;;;1.88;1.10;;;;;;;5.22;66.19;97889.06;10075249;29;20552;-77
2022/01/29 15:00:49;;;;;;;2.28;0.98;;;;;;;5.22;66.13;97868.97;10062136;29;20037;-77
2022/01/29 15:06:10;;;;;;;1.98;0.82;;;;;;;5.17;65.95;97860.28;10061783;29;20049;-76
2022/01/29 15:11:32;;;;;;;2.05;0.90;;;;;;;5.18;65.61;97891.47;10074401;29;20052;-76
2022/01/29 15:17:13;;;;;;;1.83;0.93;;;;;;;5.11;66.17;97870.06;10063248;29;20056;-77
2022/01/29 15:22:35;;;;;;;1.35;0.80;;;;;;;5.11;66.24;97859.00;10041054;29;20048;-78
2022/01/29 15:27:59;;;;;;;1.20;0.70;;;;;;;5.11;65.95;97856.97;10061696;29;20053;-78
2022/01/29 15:33:20;;;;;;;2.00;1.00;;;;;;;5.09;65.91;97878.19;10074094;29;20056;-79
2022/01/29 15:38:48;;;;;;;1.75;0.80;;;;;;;5.12;66.10;97868.78;10038488;29;20473;-78
2022/01/29 15:44:10;;;;;;;1.75;1.08;;;;;;;5.09;65.84;97848.47;10022998;29;20041;-80
2022/01/29 15:49:31;;;;;;;1.83;1.10;;;;;;;5.07;65.97;97848.31;10023484;29;20092;-80
2022/01/29 15:54:53;;;;;;;1.85;0.90;;;;;;;5.05;66.00;97808.66;10022494;29;20037;-77
2022/01/29 16:00:17;;;;;;;1.73;0.90;;;;;;;5.01;66.32;97830.41;10035524;29;20056;-78
2022/01/29 16:05:37;;;;;;;2.30;1.23;;;;;;;5.04;66.19;97832.09;10022252;29;20050;-77
2022/01/29 16:10:58;;;;;;;1.50;0.93;;;;;;;5.06;66.20;97818.44;10021530;29;20519;-77
2022/01/29 16:16:19;;;;;;;1.63;1.10;;;;;;;5.10;66.31;97802.19;10021773;29;20050;-77
2022/01/29 16:21:41;;;;;;;2.78;1.38;;;;;;;5.13;66.03;97787.25;10008984;29;20045;-77
2022/01/29 16:27:02;;;;;;;1.60;0.90;;;;;;;5.12;65.94;97753.31;10011501;29;20078;-81
2022/01/29 16:32:23;;;;;;;2.60;1.27;;;;;;;5.10;65.93;97735.78;10051343;29;20105;-81
2022/01/29 16:37:44;;;;;;;1.88;1.05;;;;;;;5.11;65.82;97746.28;10071282;29;20033;-82
2022/01/29 16:43:05;;;;;;;2.53;1.70;;;;;;;5.15;66.01;97770.81;10058999;29;20025;-83
2022/01/29 16:48:27;;;;;;;2.20;1.10;;;;;;;5.20;66.55;97775.41;10943097;24;20068;-78
2022/01/29 16:53:48;;;;;;;2.55;1.23;;;;;;;5.28;66.41;97769.84;10033664;29;20457;-77
2022/01/29 16:59:09;;;;;;;2.65;1.30;;;;;;;5.31;66.42;97758.41;10029530;29;20403;-78
2022/01/29 17:04:30;;;;;;;1.60;0.90;;;;;;;5.34;66.47;97745.50;10001012;29;20428;-77
2022/01/29 17:09:51;;;;;;;2.05;1.02;;;;;;;5.38;66.51;97768.72;10013025;29;20576;-78
2022/01/29 17:15:13;;;;;;;1.77;0.90;;;;;;;5.39;66.79;97769.44;10011556;29;20050;-78
2022/01/29 17:20:35;;;;;;;2.60;0.90;;;;;;;5.39;66.59;97728.66;10012240;29;20573;-79
2022/01/29 17:25:59;;;;;;;1.70;0.80;;;;;;;5.37;66.66;97733.28;10014680;29;20493;-78
2022/01/29 17:31:20;;;;;;;1.48;0.60;;;;;;;5.42;66.55;97724.78;9999013;29;20132;-78
2022/01/29 17:36:42;;;;;;;1.90;1.15;;;;;;;5.44;66.58;97755.41;9977875;29;20452;-81
2022/01/29 17:42:04;;;;;;;2.05;0.85;;;;;;;5.50;66.69;97751.69;10015691;29;20405;-81
2022/01/29 17:47:25;;;;;;;1.80;0.90;;;;;;;5.55;66.74;97781.22;10022569;29;20144;-84
2022/01/29 17:52:46;;;;;;;1.65;0.65;;;;;;;5.60;66.59;97774.72;10003930;29;20079;-81
2022/01/29 17:58:09;;;;;;;1.40;0.50;;;;;;;5.62;66.53;97769.38;10033932;29;20045;-82
2022/01/29 18:09:54;;;;;;;1.35;0.73;;;;;;;5.65;66.56;97762.69;9921875;30;20130;-77
2022/01/29 18:15:15;;;;;;;1.00;0.47;;;;;;;5.66;66.28;97742.00;9900701;30;20051;-79
2022/01/29 18:20:39;;;;;;;1.37;0.50;;;;;;;5.68;66.40;97706.19;9900510;30;20070;-77
2022/01/29 18:26:13;;;;;;;1.45;0.50;;;;;;;5.71;66.65;97705.81;9921238;30;20480;-82
2022/01/29 18:31:35;;;;;;;0.75;0.43;;;;;;;5.73;66.83;97710.78;9953884;29;20060;-82
2022/01/29 18:36:58;;;;;;;1.48;0.60;;;;;;;5.73;66.51;97686.59;9949729;29;20032;-80
2022/01/29 18:48:35;;;;;;;;;;;;;;;5.75;66.58;97634.13;10010481;24;20280;-80
2022/01/29 18:53:56;;;;;;;0.70;0.30;;;;;;;5.73;66.52;97620.09;9917037;29;20304;-77
2022/01/29 18:59:17;;;;;;;1.20;0.30;;;;;;;5.69;66.23;97608.72;9936401;29;20116;-78
2022/01/29 19:04:38;;;;;;;0.90;0.30;;;;;;;5.70;66.43;97593.56;9911223;29;20055;-76
2022/01/29 19:10:00;;;;;;;0.88;0.30;;;;;;;5.74;66.43;97579.31;9923638;29;20057;-76
2022/01/29 19:15:22;;;;;;;0.60;0.20;;;;;;;5.76;66.44;97590.53;9923338;29;20051;-77
2022/01/29 19:20:43;;;;;;;0.90;0.30;;;;;;;5.75;66.76;97611.22;9910733;29;20051;-77
2022/01/29 19:26:04;;;;;;;0.43;0.13;;;;;;;5.70;66.71;97601.88;9910603;29;20053;-75
2022/01/29 19:31:27;;;;;;;0.50;0.20;;;;;;;5.73;66.75;97608.28;9910147;29;20070;-75
2022/01/29 19:36:48;;;;;;;0.60;0.30;;;;;;;5.74;66.92;97593.16;9934972;29;20051;-75
2022/01/29 19:42:09;;;;;;;0.77;0.30;;;;;;;5.76;67.03;97601.63;9910138;29;20047;-78
2022/01/29 19:47:30;;;;;;;0.75;0.30;;;;;;;5.76;67.43;97596.09;9921774;29;20153;-77
2022/01/29 19:52:54;;;;;;;0.45;0.20;;;;;;;5.76;67.52;97607.16;9909500;29;20539;-77
2022/01/29 19:58:15;;;;;;;2.72;0.32;;;;;;;5.78;67.59;97610.09;9921241;29;20070;-78
2022/01/29 20:03:36;;;;;;;0.60;0.30;;;;;;;5.69;67.91;97610.72;9917309;29;20122;-75
2022/01/29 20:08:57;;;;;;;0.90;0.30;;;;;;;5.57;68.29;97559.84;9931994;29;21005;-74
2022/01/29 20:14:17;;;;;;;0.75;0.38;;;;;;;5.47;68.42;97574.31;9940933;29;20090;-74
2022/01/29 20:19:38;;;;;;;0.82;0.30;;;;;;;5.50;68.85;97557.88;9908685;29;20049;-75
2022/01/29 20:25:00;;;;;;;0.90;0.40;;;;;;;5.51;69.26;97549.03;9908399;29;20049;-74
2022/01/29 20:30:21;;;;;;;1.15;0.40;;;;;;;5.59;68.95;97563.53;9919978;29;20078;-78
2022/01/29 20:35:44;;;;;;;0.77;0.28;;;;;;;5.66;69.37;97543.34;9900785;29;20051;-77
2022/01/29 20:41:10;;;;;;;0.50;0.20;;;;;;;5.68;69.52;97537.97;9909000;29;20058;-78
2022/01/29 20:46:36;;;;;;;1.33;0.20;;;;;;;5.71;69.50;97539.63;9938960;29;20113;-78
2022/01/29 20:51:57;;;;;;;1.27;0.30;;;;;;;5.67;69.63;97528.19;9994601;29;20128;-78
2022/01/29 20:57:18;;;;;;;1.05;0.25;;;;;;;5.65;69.37;97528.03;10007471;29;20050;-78
2022/01/29 21:02:40;;;;;;;0.57;0.28;;;;;;;5.54;70.04;97527.78;9993639;29;20102;-77
2022/01/29 21:08:02;;;;;;;0.73;0.30;;;;;;;5.61;70.11;97530.50;9992513;29;20054;-77
2022/01/29 21:13:27;;;;;;;1.45;0.30;;;;;;;5.64;70.23;97529.34;9992116;29;20069;-75
2022/01/29 21:18:48;;;;;;;1.08;0.20;;;;;;;5.57;70.17;97512.78;10004910;29;20090;-75
2022/01/29 21:24:10;;;;;;;0.90;0.40;;;;;;;5.50;70.49;97508.03;9984481;29;20410;-75
2022/01/29 21:29:32;;;;;;;1.45;0.77;;;;;;;5.45;70.65;97491.09;9991999;29;20050;-75
2022/01/29 21:34:54;;;;;;;0.95;0.40;;;;;;;5.57;70.16;97479.56;9991762;29;20082;-75
2022/01/29 21:40:16;;;;;;;0.70;0.30;;;;;;;5.76;70.02;97479.75;9976858;29;20136;-75
2022/01/29 21:45:38;;;;;;;1.25;0.20;;;;;;;5.94;69.53;97463.91;10004404;29;20161;-75
2022/01/29 21:51:00;;;;;;;0.30;0.20;;;;;;;6.01;69.24;97449.25;9991844;29;20054;-75
2022/01/29 21:56:21;;;;;;;0.40;0.20;;;;;;;5.96;69.45;97442.63;10004327;29;20046;-75
2022/01/29 22:01:42;;;;;;;2.45;0.10;;;;;;;5.97;68.99;97466.25;9978925;29;20486;-75
2022/01/29 22:07:04;;;;;;;0.75;0.22;;;;;;;6.10;69.08;97472.78;9991476;29;20046;-75
2022/01/29 22:12:25;;;;;;;1.13;0.30;;;;;;;6.19;68.55;97477.69;9991085;29;20050;-75
2022/01/29 22:17:46;;;;;;;0.57;0.20;;;;;;;6.29;68.54;97501.41;9991129;29;20054;-75
2022/01/29 22:23:08;;;;;;;1.00;0.30;;;;;;;6.33;68.29;97509.28;9978473;29;20387;-75
2022/01/29 22:28:29;;;;;;;1.40;0.28;;;;;;;6.33;68.03;97478.78;9967907;29;20073;-75
2022/01/29 22:33:50;;;;;;;0.80;0.20;;;;;;;6.36;68.34;97488.72;10010323;29;20124;-75
2022/01/29 22:39:14;;;;;;;0.40;0.20;;;;;;;6.35;68.59;97481.00;9998000;29;20046;-75
2022/01/29 22:44:36;;;;;;;0.70;0.40;;;;;;;6.40;68.12;97468.94;9984966;29;20395;-75
2022/01/29 22:49:57;;;;;;;0.45;0.20;;;;;;;6.43;68.38;97479.59;9997473;29;20066;-75
2022/01/29 22:55:18;;;;;;;0.98;0.30;;;;;;;6.44;68.39;97483.84;9996934;29;20046;-75
2022/01/29 23:00:43;;;;;;;0.95;0.45;;;;;;;6.51;67.76;97490.59;9985201;29;20053;-75
2022/01/29 23:06:18;;;;;;;0.63;0.30;;;;;;;6.54;68.01;97490.19;9888004;30;20115;-75
2022/01/29 23:11:42;;;;;;;0.63;0.30;;;;;;;6.56;68.87;97489.59;9909355;30;20051;-76
2022/01/29 23:17:05;;;;;;;1.30;0.40;;;;;;;6.51;69.17;97505.19;9909306;29;20055;-75
2022/01/29 23:28:13;;;;;;;1.45;0.40;;;;;;;6.32;70.03;97518.91;9896664;30;20043;-75
2022/01/29 23:39:16;;;;;;;1.98;0.40;;;;;;;6.21;71.37;97513.88;9895396;29;20043;-76
2022/01/29 23:49:58;;;;;;;1.10;0.57;;;;;;;6.20;71.14;97527.00;9908161;30;20418;-75
2022/01/29 23:55:20;;;;;;;0.50;0.15;;;;;;;6.26;70.53;97512.88;9907973;30;20075;-75
